Terminal Aerodrome Forecast
Issued by NWS Jackson, MS

Home | Current Version | Previous Version | Text Only | Print | Product List | Glossary On
Versions: 1 2 3 4 5 6 7 8 9 10 11 12 13 14 15 16 17 18 19 20 21
000
FTUS44 KMEG 041532 AAB
TAFTUP
TAF AMD
KTUP 041532Z 0416/0512 22010KT 5SM BR VCSH BKN006 OVC015
      TEMPO 0416/0418 3SM -RA BR BKN004 OVC015
     FM041800 25010KT 3SM BR VCTS OVC007CB
     FM042000 02011G17KT 3SM -SHRA OVC007
     FM050100 03015G25KT 3SM -SHRA OVC007
     FM050600 03020G30KT 3SM -FZRAPL OVC005=

USA.gov is the U.S. government's official web portal to all federal, state and local government web resources and services.